sensor_id;sensor_type;location;lat;lon;timestamp;temperature;humidity
32215;DHT22;18708;53.124;23.190;2022-10-31T00:01:06;5.70;99.90
32215;DHT22;18708;53.124;23.190;2022-10-31T00:03:36;5.60;99.90
32215;DHT22;18708;53.124;23.190;2022-10-31T00:06:02;5.50;99.90
32215;DHT22;18708;53.124;23.190;2022-10-31T00:08:28;5.40;99.90
32215;DHT22;18708;53.124;23.190;2022-10-31T00:10:53;5.40;99.90
32215;DHT22;18708;53.124;23.190;2022-10-31T00:13:19;5.30;99.90
32215;DHT22;18708;53.124;23.190;2022-10-31T00:15:44;5.30;99.90
32215;DHT22;18708;53.124;23.190;2022-10-31T00:18:10;5.20;99.90
32215;DHT22;18708;53.124;23.190;2022-10-31T00:20:39;5.20;99.90
32215;DHT22;18708;53.124;23.190;2022-10-31T00:23:06;5.20;99.90
32215;DHT22;18708;53.124;23.190;2022-10-31T00:25:37;5.20;99.90
32215;DHT22;18708;53.124;23.190;2022-10-31T00:28:07;5.10;99.90
32215;DHT22;18708;53.124;23.190;2022-10-31T00:30:33;5.10;99.90
32215;DHT22;18708;53.124;23.190;2022-10-31T00:32:59;5.10;99.90
32215;DHT22;18708;53.124;23.190;2022-10-31T00:35:25;5.00;99.90
32215;DHT22;18708;53.124;23.190;2022-10-31T00:37:52;5.00;99.90
32215;DHT22;18708;53.124;23.190;2022-10-31T00:40:18;5.00;99.90
32215;DHT22;18708;53.124;23.190;2022-10-31T00:42:43;4.90;99.90
32215;DHT22;18708;53.124;23.190;2022-10-31T00:45:10;4.90;99.90
32215;DHT22;18708;53.124;23.190;2022-10-31T00:47:36;4.90;99.90
32215;DHT22;18708;53.124;23.190;2022-10-31T00:50:03;4.80;99.90
32215;DHT22;18708;53.124;23.190;2022-10-31T00:52:28;4.80;99.90
32215;DHT22;18708;53.124;23.190;2022-10-31T00:54:56;4.70;99.90
32215;DHT22;18708;53.124;23.190;2022-10-31T00:57:22;4.60;99.90
32215;DHT22;18708;53.124;23.190;2022-10-31T00:59:48;4.50;99.90
32215;DHT22;18708;53.124;23.190;2022-10-31T01:02:13;4.50;99.90
32215;DHT22;18708;53.124;23.190;2022-10-31T01:04:39;4.40;99.90
32215;DHT22;18708;53.124;23.190;2022-10-31T01:07:04;4.40;99.90
32215;DHT22;18708;53.124;23.190;2022-10-31T01:09:33;4.40;99.90
32215;DHT22;18708;53.124;23.190;2022-10-31T01:11:59;4.30;99.90
32215;DHT22;18708;53.124;23.190;2022-10-31T01:14:27;4.40;99.90
32215;DHT22;18708;53.124;23.190;2022-10-31T01:16:52;4.40;99.90
32215;DHT22;18708;53.124;23.190;2022-10-31T01:19:18;4.40;99.90
32215;DHT22;18708;53.124;23.190;2022-10-31T01:21:45;4.40;99.90
32215;DHT22;18708;53.124;23.190;2022-10-31T01:24:10;4.50;99.90
32215;DHT22;18708;53.124;23.190;2022-10-31T01:26:36;4.50;99.90
32215;DHT22;18708;53.124;23.190;2022-10-31T01:29:05;4.60;99.90
32215;DHT22;18708;53.124;23.190;2022-10-31T01:31:34;4.60;99.90
32215;DHT22;18708;53.124;23.190;2022-10-31T01:34:00;4.70;99.90
32215;DHT22;18708;53.124;23.190;2022-10-31T01:38:56;4.80;99.90
32215;DHT22;18708;53.124;23.190;2022-10-31T01:41:25;4.80;99.90
32215;DHT22;18708;53.124;23.190;2022-10-31T01:43:56;4.80;99.90
32215;DHT22;18708;53.124;23.190;2022-10-31T01:46:34;4.80;99.90
32215;DHT22;18708;53.124;23.190;2022-10-31T01:49:04;4.80;99.90
32215;DHT22;18708;53.124;23.190;2022-10-31T01:51:35;4.80;99.90
32215;DHT22;18708;53.124;23.190;2022-10-31T01:54:06;4.80;99.90
32215;DHT22;18708;53.124;23.190;2022-10-31T01:56:34;4.80;99.90
32215;DHT22;18708;53.124;23.190;2022-10-31T01:59:06;4.80;99.90
32215;DHT22;18708;53.124;23.190;2022-10-31T02:01:33;4.80;99.90
32215;DHT22;18708;53.124;23.190;2022-10-31T02:04:01;4.90;99.90
32215;DHT22;18708;53.124;23.190;2022-10-31T02:06:49;4.90;99.90
32215;DHT22;18708;53.124;23.190;2022-10-31T02:09:17;4.90;99.90
32215;DHT22;18708;53.124;23.190;2022-10-31T02:11:54;4.90;99.90
32215;DHT22;18708;53.124;23.190;2022-10-31T02:14:25;5.00;99.90
32215;DHT22;18708;53.124;23.190;2022-10-31T02:16:52;5.00;99.90
32215;DHT22;18708;53.124;23.190;2022-10-31T02:19:26;5.00;99.90
32215;DHT22;18708;53.124;23.190;2022-10-31T02:22:03;5.00;99.90
32215;DHT22;18708;53.124;23.190;2022-10-31T02:24:45;5.10;99.90
32215;DHT22;18708;53.124;23.190;2022-10-31T02:29:48;5.10;99.90
32215;DHT22;18708;53.124;23.190;2022-10-31T02:38:19;5.20;99.90
32215;DHT22;18708;53.124;23.190;2022-10-31T02:41:05;5.20;99.90
32215;DHT22;18708;53.124;23.190;2022-10-31T02:43:49;5.30;99.90
32215;DHT22;18708;53.124;23.190;2022-10-31T02:46:28;5.30;99.90
32215;DHT22;18708;53.124;23.190;2022-10-31T02:49:03;5.30;99.90
32215;DHT22;18708;53.124;23.190;2022-10-31T02:51:30;5.30;99.90
32215;DHT22;18708;53.124;23.190;2022-10-31T02:53:56;5.30;99.90
32215;DHT22;18708;53.124;23.190;2022-10-31T02:56:22;5.30;99.90
32215;DHT22;18708;53.124;23.190;2022-10-31T02:59:00;5.30;99.90
32215;DHT22;18708;53.124;23.190;2022-10-31T03:01:38;5.30;99.90
32215;DHT22;18708;53.124;23.190;2022-10-31T03:07:08;5.30;99.90
32215;DHT22;18708;53.124;23.190;2022-10-31T03:15:19;5.30;99.90
32215;DHT22;18708;53.124;23.190;2022-10-31T03:18:17;5.20;99.90
32215;DHT22;18708;53.124;23.190;2022-10-31T03:20:50;5.20;99.90
32215;DHT22;18708;53.124;23.190;2022-10-31T03:23:19;5.30;99.90
32215;DHT22;18708;53.124;23.190;2022-10-31T03:25:47;5.30;99.90
32215;DHT22;18708;53.124;23.190;2022-10-31T03:28:16;5.20;99.90
32215;DHT22;18708;53.124;23.190;2022-10-31T03:30:45;5.10;99.90
32215;DHT22;18708;53.124;23.190;2022-10-31T03:33:16;5.10;99.90
32215;DHT22;18708;53.124;23.190;2022-10-31T03:35:45;5.10;99.90
32215;DHT22;18708;53.124;23.190;2022-10-31T03:38:15;5.10;99.90
32215;DHT22;18708;53.124;23.190;2022-10-31T03:40:43;5.10;99.90
32215;DHT22;18708;53.124;23.190;2022-10-31T03:43:16;5.00;99.90
32215;DHT22;18708;53.124;23.190;2022-10-31T03:45:46;5.00;99.90
32215;DHT22;18708;53.124;23.190;2022-10-31T03:48:16;4.90;99.90
32215;DHT22;18708;53.124;23.190;2022-10-31T03:51:07;4.80;99.90
32215;DHT22;18708;53.124;23.190;2022-10-31T03:54:13;4.80;99.90
32215;DHT22;18708;53.124;23.190;2022-10-31T03:56:41;4.70;99.90
32215;DHT22;18708;53.124;23.190;2022-10-31T03:59:20;4.60;99.90
32215;DHT22;18708;53.124;23.190;2022-10-31T04:01:53;4.50;99.90
32215;DHT22;18708;53.124;23.190;2022-10-31T04:04:20;4.60;99.90
32215;DHT22;18708;53.124;23.190;2022-10-31T04:06:47;4.60;99.90
32215;DHT22;18708;53.124;23.190;2022-10-31T04:09:14;4.60;99.90
32215;DHT22;18708;53.124;23.190;2022-10-31T04:11:50;4.50;99.90
32215;DHT22;18708;53.124;23.190;2022-10-31T04:14:16;4.50;99.90
32215;DHT22;18708;53.124;23.190;2022-10-31T04:16:46;4.50;99.90
32215;DHT22;18708;53.124;23.190;2022-10-31T04:19:12;4.40;99.90
32215;DHT22;18708;53.124;23.190;2022-10-31T04:21:38;4.40;99.90
32215;DHT22;18708;53.124;23.190;2022-10-31T04:24:04;4.30;99.90
32215;DHT22;18708;53.124;23.190;2022-10-31T04:26:29;4.20;99.90
32215;DHT22;18708;53.124;23.190;2022-10-31T04:28:55;4.20;99.90
32215;DHT22;18708;53.124;23.190;2022-10-31T04:31:21;4.10;99.90
32215;DHT22;18708;53.124;23.190;2022-10-31T04:33:46;4.00;99.90
32215;DHT22;18708;53.124;23.190;2022-10-31T04:36:14;3.90;99.90
32215;DHT22;18708;53.124;23.190;2022-10-31T04:38:42;3.90;99.90
32215;DHT22;18708;53.124;23.190;2022-10-31T04:41:08;3.90;99.90
32215;DHT22;18708;53.124;23.190;2022-10-31T04:43:34;3.90;99.90
32215;DHT22;18708;53.124;23.190;2022-10-31T04:46:00;3.90;99.90
32215;DHT22;18708;53.124;23.190;2022-10-31T04:48:28;3.90;99.90
32215;DHT22;18708;53.124;23.190;2022-10-31T04:50:59;3.90;99.90
32215;DHT22;18708;53.124;23.190;2022-10-31T04:53:25;3.90;99.90
32215;DHT22;18708;53.124;23.190;2022-10-31T04:55:50;3.90;99.90
32215;DHT22;18708;53.124;23.190;2022-10-31T04:58:16;3.90;99.90
32215;DHT22;18708;53.124;23.190;2022-10-31T05:00:42;3.90;99.90
32215;DHT22;18708;53.124;23.190;2022-10-31T05:03:07;3.90;99.90
32215;DHT22;18708;53.124;23.190;2022-10-31T05:05:33;3.90;99.90
32215;DHT22;18708;53.124;23.190;2022-10-31T05:07:59;4.00;99.90
32215;DHT22;18708;53.124;23.190;2022-10-31T05:10:28;3.90;99.90
32215;DHT22;18708;53.124;23.190;2022-10-31T05:12:56;3.90;99.90
32215;DHT22;18708;53.124;23.190;2022-10-31T05:15:24;3.90;99.90
32215;DHT22;18708;53.124;23.190;2022-10-31T05:17:50;3.90;99.90
32215;DHT22;18708;53.124;23.190;2022-10-31T05:20:18;3.90;99.90
32215;DHT22;18708;53.124;23.190;2022-10-31T05:22:46;3.90;99.90
32215;DHT22;18708;53.124;23.190;2022-10-31T05:25:12;3.90;99.90
32215;DHT22;18708;53.124;23.190;2022-10-31T05:27:49;3.80;99.90
32215;DHT22;18708;53.124;23.190;2022-10-31T05:30:18;3.80;99.90
32215;DHT22;18708;53.124;23.190;2022-10-31T05:32:46;3.80;99.90
32215;DHT22;18708;53.124;23.190;2022-10-31T05:35:14;3.90;99.90
32215;DHT22;18708;53.124;23.190;2022-10-31T05:37:40;3.90;99.90
32215;DHT22;18708;53.124;23.190;2022-10-31T05:40:07;3.80;99.90
32215;DHT22;18708;53.124;23.190;2022-10-31T05:42:34;3.90;99.90
32215;DHT22;18708;53.124;23.190;2022-10-31T05:45:00;3.90;99.90
32215;DHT22;18708;53.124;23.190;2022-10-31T05:47:25;3.90;99.90
32215;DHT22;18708;53.124;23.190;2022-10-31T05:49:51;3.90;99.90
32215;DHT22;18708;53.124;23.190;2022-10-31T05:52:17;4.00;99.90
32215;DHT22;18708;53.124;23.190;2022-10-31T05:54:43;4.00;99.90
32215;DHT22;18708;53.124;23.190;2022-10-31T05:57:09;4.00;99.90
32215;DHT22;18708;53.124;23.190;2022-10-31T05:59:34;4.00;99.90
32215;DHT22;18708;53.124;23.190;2022-10-31T06:02:00;4.10;99.90
32215;DHT22;18708;53.124;23.190;2022-10-31T06:04:26;4.10;99.90
32215;DHT22;18708;53.124;23.190;2022-10-31T06:06:52;4.10;99.90
32215;DHT22;18708;53.124;23.190;2022-10-31T06:09:17;4.20;99.90
32215;DHT22;18708;53.124;23.190;2022-10-31T06:11:43;4.20;99.90
32215;DHT22;18708;53.124;23.190;2022-10-31T06:14:09;4.30;99.90
32215;DHT22;18708;53.124;23.190;2022-10-31T06:16:34;4.30;99.90
32215;DHT22;18708;53.124;23.190;2022-10-31T06:19:00;4.40;99.90
32215;DHT22;18708;53.124;23.190;2022-10-31T06:21:26;4.40;99.90
32215;DHT22;18708;53.124;23.190;2022-10-31T06:23:53;4.50;99.90
32215;DHT22;18708;53.124;23.190;2022-10-31T06:26:19;4.40;99.90
32215;DHT22;18708;53.124;23.190;2022-10-31T06:28:45;4.50;99.90
32215;DHT22;18708;53.124;23.190;2022-10-31T06:31:10;4.60;99.90
32215;DHT22;18708;53.124;23.190;2022-10-31T06:33:36;4.70;99.90
32215;DHT22;18708;53.124;23.190;2022-10-31T06:36:02;4.80;99.90
32215;DHT22;18708;53.124;23.190;2022-10-31T06:38:28;4.90;99.90
32215;DHT22;18708;53.124;23.190;2022-10-31T06:40:54;4.90;99.90
32215;DHT22;18708;53.124;23.190;2022-10-31T06:43:21;5.00;99.90
32215;DHT22;18708;53.124;23.190;2022-10-31T06:45:47;5.10;99.90
32215;DHT22;18708;53.124;23.190;2022-10-31T06:48:12;5.20;99.90
32215;DHT22;18708;53.124;23.190;2022-10-31T06:50:38;5.30;99.90
32215;DHT22;18708;53.124;23.190;2022-10-31T06:53:04;5.30;99.90
32215;DHT22;18708;53.124;23.190;2022-10-31T06:55:30;5.40;99.90
32215;DHT22;18708;53.124;23.190;2022-10-31T06:58:00;5.50;99.90
32215;DHT22;18708;53.124;23.190;2022-10-31T07:00:28;5.60;99.90
32215;DHT22;18708;53.124;23.190;2022-10-31T07:03:00;5.80;99.90
32215;DHT22;18708;53.124;23.190;2022-10-31T07:05:27;5.70;99.90
32215;DHT22;18708;53.124;23.190;2022-10-31T07:08:01;5.60;99.90
32215;DHT22;18708;53.124;23.190;2022-10-31T07:10:29;5.80;99.90
32215;DHT22;18708;53.124;23.190;2022-10-31T07:13:00;6.00;99.90
32215;DHT22;18708;53.124;23.190;2022-10-31T07:15:27;6.00;99.90
32215;DHT22;18708;53.124;23.190;2022-10-31T07:17:53;6.10;99.90
32215;DHT22;18708;53.124;23.190;2022-10-31T07:20:19;6.00;99.90
32215;DHT22;18708;53.124;23.190;2022-10-31T07:22:45;6.10;99.90
32215;DHT22;18708;53.124;23.190;2022-10-31T07:25:11;6.40;99.90
32215;DHT22;18708;53.124;23.190;2022-10-31T07:27:41;6.50;99.90
32215;DHT22;18708;53.124;23.190;2022-10-31T07:30:09;6.80;99.90
32215;DHT22;18708;53.124;23.190;2022-10-31T07:32:43;6.80;99.90
32215;DHT22;18708;53.124;23.190;2022-10-31T07:35:11;7.00;99.90
32215;DHT22;18708;53.124;23.190;2022-10-31T07:37:38;7.50;99.90
32215;DHT22;18708;53.124;23.190;2022-10-31T07:40:05;7.90;99.90
32215;DHT22;18708;53.124;23.190;2022-10-31T07:42:41;8.40;99.90
32215;DHT22;18708;53.124;23.190;2022-10-31T07:45:10;8.90;99.90
32215;DHT22;18708;53.124;23.190;2022-10-31T07:47:42;9.30;99.90
32215;DHT22;18708;53.124;23.190;2022-10-31T07:50:10;10.10;99.90
32215;DHT22;18708;53.124;23.190;2022-10-31T07:52:36;10.90;99.90
32215;DHT22;18708;53.124;23.190;2022-10-31T07:55:03;11.70;99.90
32215;DHT22;18708;53.124;23.190;2022-10-31T07:57:29;12.50;99.90
32215;DHT22;18708;53.124;23.190;2022-10-31T07:59:55;13.10;99.90
32215;DHT22;18708;53.124;23.190;2022-10-31T08:02:21;13.40;99.90
32215;DHT22;18708;53.124;23.190;2022-10-31T08:04:47;14.00;99.90
32215;DHT22;18708;53.124;23.190;2022-10-31T08:07:12;14.40;99.90
32215;DHT22;18708;53.124;23.190;2022-10-31T08:09:38;14.80;99.90
32215;DHT22;18708;53.124;23.190;2022-10-31T08:12:04;15.20;99.90
32215;DHT22;18708;53.124;23.190;2022-10-31T08:14:30;15.70;99.90
32215;DHT22;18708;53.124;23.190;2022-10-31T08:16:56;16.10;99.90
32215;DHT22;18708;53.124;23.190;2022-10-31T08:19:22;15.90;99.90
32215;DHT22;18708;53.124;23.190;2022-10-31T08:21:51;16.40;99.90
32215;DHT22;18708;53.124;23.190;2022-10-31T08:24:17;16.60;99.90
32215;DHT22;18708;53.124;23.190;2022-10-31T08:26:43;16.10;99.90
32215;DHT22;18708;53.124;23.190;2022-10-31T08:29:09;16.30;99.90
32215;DHT22;18708;53.124;23.190;2022-10-31T08:31:35;16.10;99.90
32215;DHT22;18708;53.124;23.190;2022-10-31T08:34:01;15.70;99.90
32215;DHT22;18708;53.124;23.190;2022-10-31T08:36:27;14.60;99.90
32215;DHT22;18708;53.124;23.190;2022-10-31T08:38:53;15.30;99.90
32215;DHT22;18708;53.124;23.190;2022-10-31T08:41:19;15.30;99.90
32215;DHT22;18708;53.124;23.190;2022-10-31T08:43:45;15.90;99.90
32215;DHT22;18708;53.124;23.190;2022-10-31T08:46:11;15.20;99.90
32215;DHT22;18708;53.124;23.190;2022-10-31T08:48:36;16.00;99.90
32215;DHT22;18708;53.124;23.190;2022-10-31T08:51:02;16.40;99.90
32215;DHT22;18708;53.124;23.190;2022-10-31T08:53:28;16.50;99.90
32215;DHT22;18708;53.124;23.190;2022-10-31T08:55:55;17.00;99.90
32215;DHT22;18708;53.124;23.190;2022-10-31T08:58:22;17.30;99.90
32215;DHT22;18708;53.124;23.190;2022-10-31T09:00:51;17.30;99.90
32215;DHT22;18708;53.124;23.190;2022-10-31T09:03:23;17.60;99.90
32215;DHT22;18708;53.124;23.190;2022-10-31T09:05:49;17.50;99.90
32215;DHT22;18708;53.124;23.190;2022-10-31T09:08:16;18.30;99.90
32215;DHT22;18708;53.124;23.190;2022-10-31T09:10:42;17.70;97.50
32215;DHT22;18708;53.124;23.190;2022-10-31T09:13:14;17.20;99.90
32215;DHT22;18708;53.124;23.190;2022-10-31T09:15:42;18.20;98.60
32215;DHT22;18708;53.124;23.190;2022-10-31T09:18:09;17.30;99.10
32215;DHT22;18708;53.124;23.190;2022-10-31T09:20:37;17.70;98.90
32215;DHT22;18708;53.124;23.190;2022-10-31T09:23:05;18.50;98.60
32215;DHT22;18708;53.124;23.190;2022-10-31T09:25:32;18.40;96.70
32215;DHT22;18708;53.124;23.190;2022-10-31T09:28:00;18.00;97.30
32215;DHT22;18708;53.124;23.190;2022-10-31T09:30:27;18.50;95.30
32215;DHT22;18708;53.124;23.190;2022-10-31T09:32:57;19.40;92.50
32215;DHT22;18708;53.124;23.190;2022-10-31T09:35:24;19.40;90.20
32215;DHT22;18708;53.124;23.190;2022-10-31T09:37:57;19.50;93.20
32215;DHT22;18708;53.124;23.190;2022-10-31T09:54:42;21.20;85.40
32215;DHT22;18708;53.124;23.190;2022-10-31T09:57:13;21.10;75.60
32215;DHT22;18708;53.124;23.190;2022-10-31T09:59:41;21.30;72.60
32215;DHT22;18708;53.124;23.190;2022-10-31T10:02:20;21.40;75.90
32215;DHT22;18708;53.124;23.190;2022-10-31T10:04:55;20.90;74.20
32215;DHT22;18708;53.124;23.190;2022-10-31T10:13:28;20.80;84.10
32215;DHT22;18708;53.124;23.190;2022-10-31T10:16:47;21.50;72.60
32215;DHT22;18708;53.124;23.190;2022-10-31T10:27:53;21.60;69.30
32215;DHT22;18708;53.124;23.190;2022-10-31T10:30:40;20.50;66.50
32215;DHT22;18708;53.124;23.190;2022-10-31T10:33:15;20.20;70.80
32215;DHT22;18708;53.124;23.190;2022-10-31T10:35:56;21.10;73.90
32215;DHT22;18708;53.124;23.190;2022-10-31T10:41:21;20.20;70.60
32215;DHT22;18708;53.124;23.190;2022-10-31T10:43:50;20.00;70.10
32215;DHT22;18708;53.124;23.190;2022-10-31T10:52:02;21.00;64.90
32215;DHT22;18708;53.124;23.190;2022-10-31T11:00:26;23.30;60.50
32215;DHT22;18708;53.124;23.190;2022-10-31T11:02:53;22.70;61.60
32215;DHT22;18708;53.124;23.190;2022-10-31T11:07:56;22.60;59.10
32215;DHT22;18708;53.124;23.190;2022-10-31T11:10:22;22.10;59.10
32215;DHT22;18708;53.124;23.190;2022-10-31T11:13:04;22.80;63.60
32215;DHT22;18708;53.124;23.190;2022-10-31T11:15:35;22.90;57.20
32215;DHT22;18708;53.124;23.190;2022-10-31T11:18:02;22.80;56.30
32215;DHT22;18708;53.124;23.190;2022-10-31T11:20:31;22.50;56.30
32215;DHT22;18708;53.124;23.190;2022-10-31T11:23:21;21.40;59.40
32215;DHT22;18708;53.124;23.190;2022-10-31T11:25:58;21.80;58.30
32215;DHT22;18708;53.124;23.190;2022-10-31T11:28:26;20.80;65.80
32215;DHT22;18708;53.124;23.190;2022-10-31T11:31:14;21.70;63.90
32215;DHT22;18708;53.124;23.190;2022-10-31T11:36:30;21.40;61.40
32215;DHT22;18708;53.124;23.190;2022-10-31T11:38:58;21.90;61.90
32215;DHT22;18708;53.124;23.190;2022-10-31T11:41:33;22.40;65.90
32215;DHT22;18708;53.124;23.190;2022-10-31T11:44:09;22.70;56.70
32215;DHT22;18708;53.124;23.190;2022-10-31T11:46:43;22.80;61.70
32215;DHT22;18708;53.124;23.190;2022-10-31T11:49:42;22.50;56.70
32215;DHT22;18708;53.124;23.190;2022-10-31T11:52:30;22.60;60.40
32215;DHT22;18708;53.124;23.190;2022-10-31T11:57:47;22.00;61.20
32215;DHT22;18708;53.124;23.190;2022-10-31T12:00:31;22.40;58.60
32215;DHT22;18708;53.124;23.190;2022-10-31T12:03:27;22.60;55.60
32215;DHT22;18708;53.124;23.190;2022-10-31T12:06:18;22.80;57.20
32215;DHT22;18708;53.124;23.190;2022-10-31T12:08:46;21.00;55.50
32215;DHT22;18708;53.124;23.190;2022-10-31T12:13:57;20.30;59.50
32215;DHT22;18708;53.124;23.190;2022-10-31T12:16:39;20.30;59.50
32215;DHT22;18708;53.124;23.190;2022-10-31T12:54:57;17.40;72.90
32215;DHT22;18708;53.124;23.190;2022-10-31T13:00:15;16.60;95.00
32215;DHT22;18708;53.124;23.190;2022-10-31T13:05:31;15.90;97.20
32215;DHT22;18708;53.124;23.190;2022-10-31T13:10:32;15.40;95.60
32215;DHT22;18708;53.124;23.190;2022-10-31T13:13:15;15.00;82.60
32215;DHT22;18708;53.124;23.190;2022-10-31T13:15:57;14.60;90.90
32215;DHT22;18708;53.124;23.190;2022-10-31T13:18:30;14.40;94.60
32215;DHT22;18708;53.124;23.190;2022-10-31T13:20:59;14.10;95.90
32215;DHT22;18708;53.124;23.190;2022-10-31T13:23:36;13.90;98.70
32215;DHT22;18708;53.124;23.190;2022-10-31T13:31:20;13.80;99.90
32215;DHT22;18708;53.124;23.190;2022-10-31T13:33:59;13.70;99.90
32215;DHT22;18708;53.124;23.190;2022-10-31T13:36:41;13.40;99.90
32215;DHT22;18708;53.124;23.190;2022-10-31T13:41:54;13.00;99.90
32215;DHT22;18708;53.124;23.190;2022-10-31T13:44:27;13.00;99.90
32215;DHT22;18708;53.124;23.190;2022-10-31T13:46:57;13.00;99.90
32215;DHT22;18708;53.124;23.190;2022-10-31T13:52:14;12.80;99.90
32215;DHT22;18708;53.124;23.190;2022-10-31T13:54:46;12.60;99.90
32215;DHT22;18708;53.124;23.190;2022-10-31T13:59:58;12.40;99.90
32215;DHT22;18708;53.124;23.190;2022-10-31T14:02:34;12.40;99.90
32215;DHT22;18708;53.124;23.190;2022-10-31T14:05:18;12.40;99.90
32215;DHT22;18708;53.124;23.190;2022-10-31T14:07:47;12.30;99.90
32215;DHT22;18708;53.124;23.190;2022-10-31T14:10:35;12.10;99.90
32215;DHT22;18708;53.124;23.190;2022-10-31T14:15:41;12.00;99.90
32215;DHT22;18708;53.124;23.190;2022-10-31T14:18:24;11.90;99.90
32215;DHT22;18708;53.124;23.190;2022-10-31T14:20:50;11.90;99.90
32215;DHT22;18708;53.124;23.190;2022-10-31T14:26:17;11.70;99.90
32215;DHT22;18708;53.124;23.190;2022-10-31T14:28:43;11.70;99.90
32215;DHT22;18708;53.124;23.190;2022-10-31T14:31:39;11.80;99.90
32215;DHT22;18708;53.124;23.190;2022-10-31T14:39:27;11.60;99.90
32215;DHT22;18708;53.124;23.190;2022-10-31T14:44:48;11.40;99.90
32215;DHT22;18708;53.124;23.190;2022-10-31T14:52:29;11.10;99.90
32215;DHT22;18708;53.124;23.190;2022-10-31T14:54:58;10.90;99.90
32215;DHT22;18708;53.124;23.190;2022-10-31T14:57:29;10.90;99.90
32215;DHT22;18708;53.124;23.190;2022-10-31T15:00:03;11.00;99.90
32215;DHT22;18708;53.124;23.190;2022-10-31T15:02:36;11.00;99.90
32215;DHT22;18708;53.124;23.190;2022-10-31T15:05:11;10.90;99.90
32215;DHT22;18708;53.124;23.190;2022-10-31T15:07:51;10.90;99.90
32215;DHT22;18708;53.124;23.190;2022-10-31T15:10:30;10.80;99.90
32215;DHT22;18708;53.124;23.190;2022-10-31T15:13:18;10.70;99.90
32215;DHT22;18708;53.124;23.190;2022-10-31T15:15:45;10.60;99.90
32215;DHT22;18708;53.124;23.190;2022-10-31T15:18:24;10.60;99.90
32215;DHT22;18708;53.124;23.190;2022-10-31T15:20:51;10.40;99.90
32215;DHT22;18708;53.124;23.190;2022-10-31T15:23:25;10.30;99.90
32215;DHT22;18708;53.124;23.190;2022-10-31T15:26:03;10.30;99.90
32215;DHT22;18708;53.124;23.190;2022-10-31T15:28:30;10.30;99.90
32215;DHT22;18708;53.124;23.190;2022-10-31T15:30:59;10.20;99.90
32215;DHT22;18708;53.124;23.190;2022-10-31T15:33:50;10.10;99.90
32215;DHT22;18708;53.124;23.190;2022-10-31T15:36:23;10.10;99.90
32215;DHT22;18708;53.124;23.190;2022-10-31T15:38:50;10.10;99.90
32215;DHT22;18708;53.124;23.190;2022-10-31T15:41:29;10.10;99.90
32215;DHT22;18708;53.124;23.190;2022-10-31T15:44:03;10.10;99.90
32215;DHT22;18708;53.124;23.190;2022-10-31T15:46:30;9.90;99.90
32215;DHT22;18708;53.124;23.190;2022-10-31T15:48:56;9.70;99.90
32215;DHT22;18708;53.124;23.190;2022-10-31T15:51:31;9.70;99.90
32215;DHT22;18708;53.124;23.190;2022-10-31T15:53:58;9.60;99.90
32215;DHT22;18708;53.124;23.190;2022-10-31T15:56:28;9.60;99.90
32215;DHT22;18708;53.124;23.190;2022-10-31T15:58:56;9.50;99.90
32215;DHT22;18708;53.124;23.190;2022-10-31T16:01:31;9.50;99.90
32215;DHT22;18708;53.124;23.190;2022-10-31T16:04:23;9.40;99.90
32215;DHT22;18708;53.124;23.190;2022-10-31T16:07:14;9.30;99.90
32215;DHT22;18708;53.124;23.190;2022-10-31T16:10:01;9.20;99.90
32215;DHT22;18708;53.124;23.190;2022-10-31T16:12:36;9.20;99.90
32215;DHT22;18708;53.124;23.190;2022-10-31T16:15:04;9.00;99.90
32215;DHT22;18708;53.124;23.190;2022-10-31T16:17:30;9.00;99.90
32215;DHT22;18708;53.124;23.190;2022-10-31T16:20:06;8.90;99.90
32215;DHT22;18708;53.124;23.190;2022-10-31T16:22:37;8.80;99.90
32215;DHT22;18708;53.124;23.190;2022-10-31T16:25:12;8.70;99.90
32215;DHT22;18708;53.124;23.190;2022-10-31T16:27:40;8.60;99.90
32215;DHT22;18708;53.124;23.190;2022-10-31T16:33:03;8.30;99.90
32215;DHT22;18708;53.124;23.190;2022-10-31T16:35:35;8.20;99.90
32215;DHT22;18708;53.124;23.190;2022-10-31T16:38:01;8.10;99.90
32215;DHT22;18708;53.124;23.190;2022-10-31T16:40:27;8.00;99.90
32215;DHT22;18708;53.124;23.190;2022-10-31T16:42:53;7.90;99.90
32215;DHT22;18708;53.124;23.190;2022-10-31T16:45:24;7.80;99.90
32215;DHT22;18708;53.124;23.190;2022-10-31T16:47:50;7.60;99.90
32215;DHT22;18708;53.124;23.190;2022-10-31T16:50:19;7.60;99.90
32215;DHT22;18708;53.124;23.190;2022-10-31T16:52:46;7.50;99.90
32215;DHT22;18708;53.124;23.190;2022-10-31T16:55:16;7.40;99.90
32215;DHT22;18708;53.124;23.190;2022-10-31T16:57:46;7.40;99.90
32215;DHT22;18708;53.124;23.190;2022-10-31T17:00:17;7.30;99.90
32215;DHT22;18708;53.124;23.190;2022-10-31T17:02:47;7.20;99.90
32215;DHT22;18708;53.124;23.190;2022-10-31T17:05:16;7.20;99.90
32215;DHT22;18708;53.124;23.190;2022-10-31T17:07:42;7.20;99.90
32215;DHT22;18708;53.124;23.190;2022-10-31T17:10:09;7.10;99.90
32215;DHT22;18708;53.124;23.190;2022-10-31T17:12:36;7.10;99.90
32215;DHT22;18708;53.124;23.190;2022-10-31T17:15:03;7.10;99.90
32215;DHT22;18708;53.124;23.190;2022-10-31T17:17:29;7.00;99.90
32215;DHT22;18708;53.124;23.190;2022-10-31T17:19:55;7.00;99.90
32215;DHT22;18708;53.124;23.190;2022-10-31T17:22:21;6.90;99.90
32215;DHT22;18708;53.124;23.190;2022-10-31T17:24:46;6.80;99.90
32215;DHT22;18708;53.124;23.190;2022-10-31T17:27:12;6.80;99.90
32215;DHT22;18708;53.124;23.190;2022-10-31T17:29:38;6.70;99.90
32215;DHT22;18708;53.124;23.190;2022-10-31T17:32:04;6.60;99.90
32215;DHT22;18708;53.124;23.190;2022-10-31T17:34:30;6.60;99.90
32215;DHT22;18708;53.124;23.190;2022-10-31T17:36:56;6.60;99.90
32215;DHT22;18708;53.124;23.190;2022-10-31T17:39:22;6.50;99.90
32215;DHT22;18708;53.124;23.190;2022-10-31T17:41:51;6.40;99.90
32215;DHT22;18708;53.124;23.190;2022-10-31T17:44:17;6.30;99.90
32215;DHT22;18708;53.124;23.190;2022-10-31T17:46:43;6.20;99.90
32215;DHT22;18708;53.124;23.190;2022-10-31T17:49:12;6.10;99.90
32215;DHT22;18708;53.124;23.190;2022-10-31T17:51:38;6.00;99.90
32215;DHT22;18708;53.124;23.190;2022-10-31T17:54:03;6.00;99.90
32215;DHT22;18708;53.124;23.190;2022-10-31T17:56:31;5.90;99.90
32215;DHT22;18708;53.124;23.190;2022-10-31T17:58:57;5.90;99.90
32215;DHT22;18708;53.124;23.190;2022-10-31T18:01:23;5.90;99.90
32215;DHT22;18708;53.124;23.190;2022-10-31T18:03:49;5.90;99.90
32215;DHT22;18708;53.124;23.190;2022-10-31T18:06:15;5.80;99.90
32215;DHT22;18708;53.124;23.190;2022-10-31T18:08:42;5.70;99.90
32215;DHT22;18708;53.124;23.190;2022-10-31T18:11:11;5.70;99.90
32215;DHT22;18708;53.124;23.190;2022-10-31T18:13:38;5.70;99.90
32215;DHT22;18708;53.124;23.190;2022-10-31T18:16:14;5.60;99.90